CZ-0149 weather

Letiště Komárovice
Czechia

Public forecast

Using degrees Celsius for public forecast. Weather courtesy of forecast.io.

METAR (pilot weather report)

Closest report is Náměšť Air Base, 20.5 nm (38.0 km) ESE. Retrieved 2019/08/18 02:00 UTC (19 minutes ago):

LKNA 180200Z 12003KT CAVOK 18/12 Q1014 RMK BLU

TAF (pilot weather forecast)

Closest forecast is Náměšť Air Base, 20.5 nm (38.0 km) ESE. Retrieved 2019/08/18 00:06 UTC (2 hours ago):

TAF LKNA 172300Z 1800/1900 17006KT CAVOK TEMPO 1800/1807 VRB02KT BKN040